createdAt,value
2023-03-18T00:01:16.359Z,7.53
2023-03-18T00:03:43.719Z,8.25
2023-03-18T00:06:13.682Z,7.35
2023-03-18T00:08:42.727Z,6.93
2023-03-18T00:11:13.012Z,6.57
2023-03-18T00:13:41.618Z,5.68
2023-03-18T00:16:11.602Z,6.28
2023-03-18T00:18:40.302Z,7.72
2023-03-18T00:21:07.493Z,7.63
2023-03-18T00:23:34.848Z,8.07
2023-03-18T00:26:02.620Z,8.55
2023-03-18T00:28:31.475Z,7.28
2023-03-18T00:31:05.378Z,7.78
2023-03-18T00:33:32.466Z,7.32
2023-03-18T00:35:59.859Z,7.68
2023-03-18T00:38:26.853Z,8.57
2023-03-18T00:40:53.895Z,8.45
2023-03-18T00:43:22.796Z,9.20
2023-03-18T00:45:51.221Z,8.45
2023-03-18T00:48:18.424Z,8.88
2023-03-18T00:50:45.691Z,8.02
2023-03-18T00:53:13.372Z,8.30
2023-03-18T00:55:41.231Z,7.78
2023-03-18T00:58:10.025Z,8.38
2023-03-18T01:00:41.410Z,8.18
2023-03-18T01:03:08.999Z,7.60
2023-03-18T01:05:38.209Z,8.43
2023-03-18T01:08:05.788Z,8.00
2023-03-18T01:10:33.183Z,6.25
2023-03-18T01:13:00.860Z,7.32
2023-03-18T01:15:28.318Z,8.48
2023-03-18T01:17:57.077Z,7.68
2023-03-18T01:20:25.522Z,7.40
2023-03-18T01:22:54.953Z,7.00
2023-03-18T01:25:22.080Z,8.35
2023-03-18T01:27:52.560Z,9.52
2023-03-18T01:30:19.809Z,7.00
2023-03-18T01:32:47.949Z,7.50
2023-03-18T01:35:15.967Z,8.93
2023-03-18T01:37:46.848Z,7.10
2023-03-18T01:40:16.127Z,8.02
2023-03-18T01:42:53.424Z,8.65
2023-03-18T01:45:25.767Z,6.85
2023-03-18T01:47:58.277Z,6.47
2023-03-18T01:50:32.444Z,6.93
2023-03-18T01:53:04.979Z,7.80
2023-03-18T01:55:33.383Z,6.80
2023-03-18T01:58:04.209Z,7.07
2023-03-18T02:00:31.626Z,6.88
2023-03-18T02:02:59.183Z,7.60
2023-03-18T02:05:28.417Z,7.15
2023-03-18T02:07:55.698Z,7.05
2023-03-18T02:10:28.216Z,6.55
2023-03-18T02:13:03.554Z,7.38
2023-03-18T02:15:40.272Z,6.70
2023-03-18T02:18:30.355Z,7.75
2023-03-18T02:21:22.650Z,7.63
2023-03-18T02:24:02.341Z,7.57
2023-03-18T02:26:58.791Z,7.10
2023-03-18T02:29:34.824Z,6.80
2023-03-18T02:32:08.004Z,6.72
2023-03-18T02:34:37.860Z,7.07
2023-03-18T02:37:07.873Z,6.72
2023-03-18T02:39:37.164Z,7.97
2023-03-18T02:42:05.269Z,7.88
2023-03-18T02:44:43.770Z,6.80
2023-03-18T02:47:31.589Z,6.43
2023-03-18T02:49:59.648Z,7.50
2023-03-18T02:52:26.678Z,8.88
2023-03-18T02:54:58.408Z,6.82
2023-03-18T02:57:27.620Z,7.43
2023-03-18T02:59:56.002Z,6.60
2023-03-18T03:02:23.221Z,7.07
2023-03-18T03:04:50.217Z,7.40
2023-03-18T03:07:18.619Z,6.90
2023-03-18T03:09:50.604Z,6.10
2023-03-18T03:12:19.757Z,6.70
2023-03-18T03:14:51.660Z,6.40
2023-03-18T03:17:20.325Z,6.63
2023-03-18T03:19:47.422Z,6.35
2023-03-18T03:22:17.360Z,6.30
2023-03-18T03:24:46.735Z,6.95
2023-03-18T03:27:14.498Z,6.40
2023-03-18T03:29:41.453Z,5.60
2023-03-18T03:32:08.504Z,6.40
2023-03-18T03:34:35.463Z,5.95
2023-03-18T03:37:02.510Z,5.90
2023-03-18T03:39:29.657Z,5.82
2023-03-18T03:41:56.980Z,5.35
2023-03-18T03:44:24.436Z,5.88
2023-03-18T03:46:51.669Z,5.72
2023-03-18T03:49:18.869Z,5.93
2023-03-18T03:51:46.443Z,6.20
2023-03-18T03:54:13.869Z,6.85
2023-03-18T03:56:42.317Z,5.70
2023-03-18T03:59:10.304Z,6.95
2023-03-18T04:02:01.115Z,5.82
2023-03-18T04:04:28.289Z,6.35
2023-03-18T04:06:56.121Z,5.38
2023-03-18T04:09:23.902Z,5.55
2023-03-18T04:11:50.889Z,6.18
2023-03-18T04:14:18.261Z,6.82
2023-03-18T04:16:45.642Z,6.32
2023-03-18T04:19:12.934Z,5.45
2023-03-18T04:21:40.944Z,6.10
2023-03-18T04:24:08.185Z,6.50
2023-03-18T04:26:35.452Z,5.85
2023-03-18T04:29:04.872Z,6.05
2023-03-18T04:31:32.264Z,6.65
2023-03-18T04:34:00.002Z,5.35
2023-03-18T04:36:28.406Z,6.65
2023-03-18T04:38:57.007Z,6.75
2023-03-18T04:41:24.703Z,6.57
2023-03-18T04:43:54.551Z,6.32
2023-03-18T04:46:23.172Z,6.30
2023-03-18T04:48:50.806Z,6.05
2023-03-18T04:51:18.777Z,6.88
2023-03-18T04:53:46.636Z,6.65
2023-03-18T04:56:13.918Z,7.15
2023-03-18T04:58:49.086Z,6.88
2023-03-18T05:01:21.134Z,7.15
2023-03-18T05:03:48.234Z,6.60
2023-03-18T05:06:31.785Z,7.72
2023-03-18T05:09:05.662Z,6.55
2023-03-18T05:11:34.337Z,7.10
2023-03-18T05:14:10.281Z,6.50
2023-03-18T05:16:43.350Z,5.30
2023-03-18T05:19:10.846Z,7.15
2023-03-18T05:21:43.451Z,7.40
2023-03-18T05:24:10.788Z,7.30
2023-03-18T05:26:40.914Z,6.38
2023-03-18T05:29:09.952Z,7.18
2023-03-18T05:31:55.327Z,6.97
2023-03-18T05:34:22.524Z,7.40
2023-03-18T05:36:49.593Z,6.85
2023-03-18T05:39:16.864Z,6.95
2023-03-18T05:41:43.839Z,6.13
2023-03-18T05:44:14.797Z,6.93
2023-03-18T05:46:43.483Z,6.80
2023-03-18T05:49:21.578Z,6.40
2023-03-18T05:52:20.877Z,7.15
2023-03-18T05:54:50.686Z,6.47
2023-03-18T05:57:24.082Z,6.20
2023-03-18T05:59:57.241Z,6.55
2023-03-18T06:02:26.959Z,7.35
2023-03-18T06:04:54.657Z,7.50
2023-03-18T06:07:21.750Z,6.45
2023-03-18T06:09:49.026Z,6.97
2023-03-18T06:12:18.018Z,6.55
2023-03-18T06:14:45.632Z,7.38
2023-03-18T06:17:12.657Z,8.55
2023-03-18T06:19:39.972Z,6.00
2023-03-18T06:22:08.598Z,6.68
2023-03-18T06:24:35.562Z,6.65
2023-03-18T06:27:03.762Z,6.40
2023-03-18T06:29:31.669Z,6.18
2023-03-18T06:32:06.110Z,6.70
2023-03-18T06:34:35.334Z,7.00
2023-03-18T06:37:04.646Z,7.00
2023-03-18T06:39:34.775Z,6.38
2023-03-18T06:42:05.223Z,7.30
2023-03-18T06:44:42.132Z,6.45
2023-03-18T06:47:24.792Z,7.13
2023-03-18T06:49:56.851Z,6.10
2023-03-18T06:52:35.371Z,6.22
2023-03-18T06:55:10.303Z,7.43
2023-03-18T06:57:41.690Z,6.05
2023-03-18T07:00:10.879Z,6.85
2023-03-18T07:02:39.694Z,6.18
2023-03-18T07:05:10.172Z,6.35
2023-03-18T07:07:37.787Z,5.95
2023-03-18T07:10:07.849Z,6.25
2023-03-18T07:12:34.878Z,6.78
2023-03-18T07:15:03.280Z,7.35
2023-03-18T07:17:30.892Z,7.07
2023-03-18T07:19:58.162Z,6.70
2023-03-18T07:22:25.505Z,6.10
2023-03-18T07:24:52.540Z,5.45
2023-03-18T07:27:19.646Z,5.20
2023-03-18T07:29:47.313Z,6.22
2023-03-18T07:32:14.683Z,5.63
2023-03-18T07:34:42.667Z,6.85
2023-03-18T07:37:12.749Z,5.72
2023-03-18T07:39:39.859Z,5.97
2023-03-18T07:42:06.977Z,7.65
2023-03-18T07:44:34.171Z,5.43
2023-03-18T07:47:01.676Z,6.15
2023-03-18T07:49:28.920Z,5.65
2023-03-18T07:51:56.540Z,5.80
2023-03-18T07:54:24.745Z,7.28
2023-03-18T07:56:52.359Z,5.80
2023-03-18T07:59:20.873Z,5.50
2023-03-18T08:01:49.080Z,6.75
2023-03-18T08:04:16.588Z,5.50
2023-03-18T08:06:43.788Z,5.32
2023-03-18T08:09:11.072Z,2.83
2023-03-18T08:11:38.270Z,6.32
2023-03-18T08:14:05.677Z,5.93
2023-03-18T08:16:32.720Z,5.68
2023-03-18T08:18:59.809Z,4.47
2023-03-18T08:21:26.748Z,4.90
2023-03-18T08:23:53.877Z,4.40
2023-03-18T08:26:21.584Z,5.10
2023-03-18T08:28:48.527Z,5.07
2023-03-18T08:31:15.780Z,5.30
2023-03-18T08:33:43.599Z,5.00
2023-03-18T08:36:10.905Z,4.93
2023-03-18T08:38:39.366Z,4.80
2023-03-18T08:41:06.750Z,5.07
2023-03-18T08:43:33.686Z,5.22
2023-03-18T08:46:00.772Z,4.93
2023-03-18T08:48:27.898Z,3.63
2023-03-18T08:50:54.842Z,5.20
2023-03-18T08:53:23.400Z,4.70
2023-03-18T08:55:50.354Z,4.28
2023-03-18T08:58:18.494Z,5.45
2023-03-18T09:00:45.528Z,4.80
2023-03-18T09:03:13.462Z,5.20
2023-03-18T09:05:40.424Z,5.35
2023-03-18T09:08:07.818Z,5.00
2023-03-18T09:10:35.676Z,4.60
2023-03-18T09:13:03.436Z,4.03
2023-03-18T09:15:31.564Z,4.10
2023-03-18T09:18:11.725Z,4.07
2023-03-18T09:20:40.748Z,4.55
2023-03-18T09:23:08.905Z,4.03
2023-03-18T09:25:36.361Z,4.03
2023-03-18T09:28:03.411Z,5.93
2023-03-18T09:30:31.962Z,5.78
2023-03-18T09:32:59.671Z,4.75
2023-03-18T09:35:29.098Z,3.78
2023-03-18T09:37:56.435Z,4.72
2023-03-18T09:40:37.934Z,6.47
2023-03-18T09:43:14.303Z,4.90
2023-03-18T09:46:18.818Z,3.90
2023-03-18T09:49:16.667Z,4.38
2023-03-18T09:52:27.910Z,4.97
2023-03-18T09:55:04.843Z,3.25
2023-03-18T09:57:39.215Z,3.13
2023-03-18T10:00:29.127Z,3.78
2023-03-18T10:03:21.417Z,3.08
2023-03-18T10:06:00.922Z,3.60
2023-03-18T10:08:27.833Z,3.58
2023-03-18T10:10:56.163Z,3.85
2023-03-18T10:13:33.611Z,2.92
2023-03-18T10:16:04.767Z,3.25
2023-03-18T10:18:38.146Z,2.80
2023-03-18T10:21:47.423Z,3.40
2023-03-18T10:24:42.778Z,2.85
2023-03-18T10:27:51.725Z,2.83
2023-03-18T10:30:37.989Z,2.80
2023-03-18T10:33:10.612Z,3.28
2023-03-18T10:36:04.813Z,3.00
2023-03-18T10:38:42.720Z,2.92
2023-03-18T10:41:17.674Z,3.00
2023-03-18T10:43:47.840Z,2.92
2023-03-18T10:46:18.634Z,3.22
2023-03-18T10:49:15.478Z,4.00
2023-03-18T10:51:45.665Z,3.08
2023-03-18T10:54:50.601Z,4.38
2023-03-18T10:57:18.596Z,4.15
2023-03-18T10:59:47.795Z,3.55
2023-03-18T11:02:20.206Z,3.50
2023-03-18T11:04:55.374Z,3.70
2023-03-18T11:07:26.052Z,3.28
2023-03-18T11:09:54.216Z,3.75
2023-03-18T11:12:28.510Z,3.13
2023-03-18T11:14:56.423Z,2.90
2023-03-18T11:17:28.158Z,2.70
2023-03-18T11:20:01.210Z,2.45
2023-03-18T11:22:29.063Z,2.95
2023-03-18T11:25:11.607Z,2.90
2023-03-18T11:27:57.390Z,2.53
2023-03-18T11:30:40.712Z,2.60
2023-03-18T11:33:10.970Z,2.60
2023-03-18T11:36:00.030Z,2.67
2023-03-18T11:38:30.962Z,2.33
2023-03-18T11:41:16.999Z,2.55
2023-03-18T11:43:59.523Z,2.22
2023-03-18T11:46:46.075Z,2.60
2023-03-18T11:49:19.863Z,2.50
2023-03-18T11:51:49.558Z,2.05
2023-03-18T11:54:47.801Z,1.83
2023-03-18T11:57:32.325Z,1.65
2023-03-18T12:00:17.676Z,2.00
2023-03-18T12:02:59.518Z,2.42
2023-03-18T12:05:52.187Z,2.17
2023-03-18T12:08:43.492Z,1.60
2023-03-18T12:11:24.720Z,2.38
2023-03-18T12:14:10.043Z,1.88
2023-03-18T12:16:55.335Z,1.75
2023-03-18T12:19:29.727Z,2.08
2023-03-18T12:23:03.075Z,2.00
2023-03-18T12:25:32.953Z,1.85
2023-03-18T12:28:17.877Z,1.50
2023-03-18T12:31:12.180Z,1.90
2023-03-18T12:33:56.519Z,1.85
2023-03-18T12:36:57.173Z,2.15
2023-03-18T12:40:00.852Z,1.80
2023-03-18T12:42:37.955Z,1.90
2023-03-18T12:45:20.631Z,1.70
2023-03-18T12:47:59.551Z,1.95
2023-03-18T12:50:53.483Z,2.33
2023-03-18T12:53:36.864Z,1.90
2023-03-18T12:56:16.700Z,1.50
2023-03-18T12:59:02.366Z,1.80
2023-03-18T13:01:55.829Z,2.10
2023-03-18T13:04:28.380Z,1.65
2023-03-18T13:07:15.901Z,1.63
2023-03-18T13:09:48.641Z,1.60
2023-03-18T13:12:30.480Z,1.77
2023-03-18T13:15:16.015Z,1.77
2023-03-18T13:17:45.020Z,1.70
2023-03-18T13:20:29.209Z,1.77
2023-03-18T13:23:15.929Z,1.77
2023-03-18T13:25:54.230Z,1.58
2023-03-18T13:28:43.973Z,1.70
2023-03-18T13:31:44.445Z,1.80
2023-03-18T13:34:26.544Z,1.60
2023-03-18T13:38:01.254Z,1.40
2023-03-18T13:41:00.957Z,1.80
2023-03-18T13:43:29.389Z,2.20
2023-03-18T13:45:58.786Z,1.85
2023-03-18T13:48:33.675Z,1.80
2023-03-18T13:51:19.171Z,1.60
2023-03-18T13:53:47.664Z,2.38
2023-03-18T13:56:27.649Z,2.80
2023-03-18T13:58:55.248Z,2.13
2023-03-18T14:01:25.047Z,1.88
2023-03-18T14:03:56.110Z,1.70
2023-03-18T14:06:35.144Z,2.95
2023-03-18T14:09:31.581Z,2.97
2023-03-18T14:12:23.977Z,5.85
2023-03-18T14:14:51.515Z,7.60
2023-03-18T14:17:41.940Z,6.43
2023-03-18T14:20:17.806Z,5.03
2023-03-18T14:22:54.746Z,4.13
2023-03-18T14:25:31.036Z,3.33
2023-03-18T14:28:19.487Z,2.83
2023-03-18T14:31:06.951Z,3.85
2023-03-18T14:33:35.288Z,3.20
2023-03-18T14:36:10.336Z,2.47
2023-03-18T14:38:47.512Z,3.83
2023-03-18T14:41:32.739Z,2.30
2023-03-18T14:44:06.509Z,2.65
2023-03-18T14:46:41.864Z,2.35
2023-03-18T14:49:52.637Z,3.17
2023-03-18T14:52:33.445Z,2.30
2023-03-18T14:55:07.417Z,2.45
2023-03-18T14:57:34.530Z,3.35
2023-03-18T15:00:02.305Z,2.30
2023-03-18T15:02:34.623Z,2.60
2023-03-18T15:05:02.677Z,1.92
2023-03-18T15:07:36.697Z,2.35
2023-03-18T15:10:17.609Z,2.13
2023-03-18T15:12:44.624Z,1.98
2023-03-18T15:15:16.267Z,2.00
2023-03-18T15:17:49.237Z,2.15
2023-03-18T15:20:17.018Z,1.77
2023-03-18T15:22:44.631Z,1.88
2023-03-18T15:25:21.060Z,2.70
2023-03-18T15:27:49.690Z,2.22
2023-03-18T15:30:33.867Z,1.48
2023-03-18T15:33:17.918Z,1.92
2023-03-18T15:35:46.248Z,2.55
2023-03-18T15:38:17.353Z,1.98
2023-03-18T15:40:50.118Z,1.50
2023-03-18T15:43:25.022Z,1.80
2023-03-18T15:45:58.692Z,1.85
2023-03-18T15:48:44.848Z,1.67
2023-03-18T15:51:30.856Z,1.90
2023-03-18T15:54:04.073Z,1.63
2023-03-18T15:56:36.139Z,2.75
2023-03-18T15:59:08.976Z,1.40
2023-03-18T16:01:36.417Z,1.95
2023-03-18T16:04:10.349Z,1.92
2023-03-18T16:06:38.643Z,1.95
2023-03-18T16:09:14.273Z,2.40
2023-03-18T16:11:43.010Z,2.05
2023-03-18T16:14:16.154Z,2.13
2023-03-18T16:16:43.193Z,2.75
2023-03-18T16:19:28.057Z,2.53
2023-03-18T16:21:56.867Z,1.98
2023-03-18T16:24:24.574Z,1.88
2023-03-18T16:26:57.279Z,1.67
2023-03-18T16:29:31.782Z,2.17
2023-03-18T16:32:02.222Z,2.15
2023-03-18T16:34:29.375Z,2.00
2023-03-18T16:36:57.122Z,2.10
2023-03-18T16:39:34.217Z,2.45
2023-03-18T16:42:03.334Z,1.92
2023-03-18T16:44:30.827Z,1.85
2023-03-18T16:46:58.534Z,2.28
2023-03-18T16:49:31.289Z,1.67
2023-03-18T16:51:58.829Z,2.58
2023-03-18T16:54:28.617Z,2.10
2023-03-18T16:56:58.353Z,2.17
2023-03-18T16:59:30.476Z,1.98
2023-03-18T17:01:57.561Z,2.00
2023-03-18T17:04:30.110Z,2.10
2023-03-18T17:06:58.899Z,2.00
2023-03-18T17:09:26.767Z,2.15
2023-03-18T17:12:00.639Z,1.88
2023-03-18T17:14:35.438Z,1.60
2023-03-18T17:17:06.720Z,2.17
2023-03-18T17:19:35.234Z,1.70
2023-03-18T17:22:06.317Z,1.60
2023-03-18T17:24:33.306Z,1.10
2023-03-18T17:27:00.254Z,2.10
2023-03-18T17:29:30.320Z,1.38
2023-03-18T17:31:57.399Z,1.13
2023-03-18T17:34:24.302Z,0.95
2023-03-18T17:36:51.778Z,1.00
2023-03-18T17:39:18.716Z,1.30
2023-03-18T17:41:45.907Z,1.05
2023-03-18T17:44:22.407Z,1.38
2023-03-18T17:46:49.673Z,1.52
2023-03-18T17:49:20.709Z,1.38
2023-03-18T17:51:48.892Z,1.30
2023-03-18T17:54:20.386Z,1.67
2023-03-18T17:56:48.130Z,1.17
2023-03-18T17:59:17.120Z,1.52
2023-03-18T18:01:47.474Z,2.03
2023-03-18T18:04:22.788Z,1.33
2023-03-18T18:06:49.784Z,1.63
2023-03-18T18:09:17.018Z,1.45
2023-03-18T18:11:49.002Z,1.52
2023-03-18T18:14:28.848Z,1.92
2023-03-18T18:16:56.660Z,1.75
2023-03-18T18:19:24.279Z,1.67
2023-03-18T18:21:52.622Z,1.70
2023-03-18T18:24:26.812Z,2.28
2023-03-18T18:26:54.096Z,1.77
2023-03-18T18:29:23.388Z,1.75
2023-03-18T18:31:51.504Z,1.45
2023-03-18T18:34:20.143Z,1.50
2023-03-18T18:36:48.858Z,1.80
2023-03-18T18:39:15.884Z,1.88
2023-03-18T18:41:43.010Z,1.75
2023-03-18T18:44:09.978Z,1.80
2023-03-18T18:46:37.141Z,1.70
2023-03-18T18:49:04.130Z,1.50
2023-03-18T18:51:31.367Z,1.65
2023-03-18T18:53:58.405Z,1.67
2023-03-18T18:56:34.711Z,1.67
2023-03-18T18:59:05.210Z,2.38
2023-03-18T19:01:32.176Z,2.35
2023-03-18T19:03:59.108Z,2.00
2023-03-18T19:06:31.538Z,2.70
2023-03-18T19:09:09.569Z,2.47
2023-03-18T19:11:37.223Z,1.92
2023-03-18T19:14:33.400Z,2.20
2023-03-18T19:17:00.445Z,2.30
2023-03-18T19:19:29.865Z,1.95
2023-03-18T19:21:57.661Z,2.80
2023-03-18T19:24:38.117Z,2.60
2023-03-18T19:27:38.584Z,2.50
2023-03-18T19:30:21.403Z,3.20
2023-03-18T19:32:49.749Z,2.45
2023-03-18T19:35:17.271Z,3.88
2023-03-18T19:37:47.210Z,2.92
2023-03-18T19:40:30.194Z,2.63
2023-03-18T19:42:57.402Z,3.67
2023-03-18T19:45:24.560Z,3.55
2023-03-18T19:47:51.955Z,3.58
2023-03-18T19:50:21.424Z,4.60
2023-03-18T19:52:48.801Z,5.38
2023-03-18T19:55:16.639Z,4.18
2023-03-18T19:57:46.554Z,3.20
2023-03-18T20:00:23.637Z,3.08
2023-03-18T20:02:51.053Z,3.55
2023-03-18T20:05:21.349Z,4.70
2023-03-18T20:07:50.506Z,3.65
2023-03-18T20:10:19.505Z,3.78
2023-03-18T20:12:49.349Z,4.38
2023-03-18T20:15:29.238Z,3.90
2023-03-18T20:17:58.226Z,3.95
2023-03-18T20:20:35.964Z,4.63
2023-03-18T20:23:06.468Z,5.15
2023-03-18T20:25:40.124Z,4.70
2023-03-18T20:28:12.009Z,4.22
2023-03-18T20:30:40.315Z,3.90
2023-03-18T20:33:07.751Z,3.72
2023-03-18T20:35:38.374Z,4.05
2023-03-18T20:38:29.945Z,3.47
2023-03-18T20:40:57.311Z,3.30
2023-03-18T20:43:28.042Z,3.67
2023-03-18T20:45:56.831Z,3.85
2023-03-18T20:48:23.991Z,3.05
2023-03-18T20:50:52.129Z,3.17
2023-03-18T20:53:23.846Z,3.58
2023-03-18T20:55:51.336Z,3.13
2023-03-18T20:58:28.291Z,2.70
2023-03-18T21:00:55.407Z,3.40
2023-03-18T21:03:33.976Z,3.35
2023-03-18T21:06:03.888Z,3.13
2023-03-18T21:08:31.780Z,2.58
2023-03-18T21:11:01.986Z,2.38
2023-03-18T21:13:39.030Z,2.50
2023-03-18T21:16:11.663Z,2.35
2023-03-18T21:18:40.881Z,2.30
2023-03-18T21:21:20.665Z,3.28
2023-03-18T21:23:47.972Z,4.53
2023-03-18T21:26:15.102Z,6.85
2023-03-18T21:28:42.081Z,5.70
2023-03-18T21:31:35.264Z,5.75
2023-03-18T21:34:02.242Z,3.90
2023-03-18T21:36:29.172Z,4.43
2023-03-18T21:38:56.292Z,4.40
2023-03-18T21:41:28.040Z,4.13
2023-03-18T21:43:55.458Z,4.00
2023-03-18T21:46:29.724Z,4.13
2023-03-18T21:48:57.326Z,3.20
2023-03-18T21:51:38.226Z,4.90
2023-03-18T21:54:16.631Z,3.03
2023-03-18T21:56:43.633Z,5.15
2023-03-18T21:59:10.577Z,2.88
2023-03-18T22:01:37.594Z,3.80
2023-03-18T22:04:04.651Z,3.80
2023-03-18T22:06:31.980Z,3.67
2023-03-18T22:08:58.932Z,3.58
2023-03-18T22:11:26.203Z,2.97
2023-03-18T22:13:54.444Z,3.28
2023-03-18T22:16:21.728Z,3.25
2023-03-18T22:18:48.881Z,2.80
2023-03-18T22:21:27.573Z,2.67
2023-03-18T22:23:55.651Z,2.75
2023-03-18T22:26:22.986Z,3.22
2023-03-18T22:28:50.952Z,2.83
2023-03-18T22:31:26.086Z,2.75
2023-03-18T22:33:53.859Z,2.95
2023-03-18T22:36:25.546Z,2.83
2023-03-18T22:38:52.974Z,2.60
2023-03-18T22:41:29.299Z,3.15
2023-03-18T22:43:57.958Z,2.60
2023-03-18T22:46:24.955Z,3.08
2023-03-18T22:48:51.913Z,2.55
2023-03-18T22:51:31.988Z,2.63
2023-03-18T22:53:59.110Z,2.10
2023-03-18T22:56:26.492Z,2.38
2023-03-18T22:58:53.523Z,2.47
2023-03-18T23:01:26.459Z,2.90
2023-03-18T23:03:53.464Z,2.60
2023-03-18T23:06:24.020Z,2.40
2023-03-18T23:08:51.224Z,2.13
2023-03-18T23:11:18.709Z,2.08
2023-03-18T23:13:52.219Z,2.70
2023-03-18T23:16:21.408Z,2.10
2023-03-18T23:18:49.308Z,2.17
2023-03-18T23:21:21.309Z,2.33
2023-03-18T23:23:48.925Z,2.88
2023-03-18T23:26:16.276Z,3.00
2023-03-18T23:28:45.451Z,2.38
2023-03-18T23:31:13.889Z,2.20
2023-03-18T23:33:41.111Z,2.10
2023-03-18T23:36:08.880Z,2.35
2023-03-18T23:38:37.665Z,2.13
2023-03-18T23:41:05.207Z,2.47
2023-03-18T23:43:32.235Z,2.28
2023-03-18T23:45:59.488Z,1.95
2023-03-18T23:48:26.596Z,2.22
2023-03-18T23:50:53.855Z,2.10
2023-03-18T23:53:23.784Z,2.08
2023-03-18T23:55:53.872Z,2.17
2023-03-18T23:58:20.830Z,2.05
